Hainesville, Illinois
Current Conditions -  °F | °C
As of 2:55 AM on Wednesday 22 Oct 2014 (Local Time) from KUGN Reporting Station
Clear Clear  
Wind Chill: 37°   Ceiling: Unl
Heat Index: 37°   Visibility: 10mi
Dew Point: 34°   Wind: 3mph
Humidity: 89%   Direction: 310°NW
Pressure: 30.28"   Gusts: NA
Location:  42.3442°N, 88.1158°W
Report Text: KUGN 220755Z 31003KT 10SM CLR 03/01 A3028 RMK AO2 SLP259 T00280011
Loading
Personal Weather Stations






























Interactive Weather Map
Tropical Storm Tracking
New forecast layout! Learn more

10-Day Weather Forecast

Advertisements
Track Severe Weather on mobile